sensor_id;sensor_type;location;lat;lon;timestamp;pressure;altitude;pressure_sealevel;temperature;humidity
65157;BME280;52745;49.794;18.258;2023-05-10T00:00:48;-16198.28;;;9.78;55.53
65157;BME280;52745;49.794;18.258;2023-05-10T00:03:14;-16196.78;;;9.72;56.15
65157;BME280;52745;49.794;18.258;2023-05-10T00:05:41;-16195.03;;;9.65;56.43
65157;BME280;52745;49.794;18.258;2023-05-10T00:08:08;-16192.56;;;9.56;56.67
65157;BME280;52745;49.794;18.258;2023-05-10T00:10:34;-16190.53;;;9.48;57.23
65157;BME280;52745;49.794;18.258;2023-05-10T00:13:02;-16188.75;;;9.42;57.51
65157;BME280;52745;49.794;18.258;2023-05-10T00:15:29;-16186.00;;;9.31;57.75
65157;BME280;52745;49.794;18.258;2023-05-10T00:17:59;-16184.25;;;9.25;58.13
65157;BME280;52745;49.794;18.258;2023-05-10T00:20:26;-16182.88;;;9.20;58.41
65157;BME280;52745;49.794;18.258;2023-05-10T00:22:53;-16181.91;;;9.16;58.42
65157;BME280;52745;49.794;18.258;2023-05-10T00:25:19;-16181.78;;;9.16;58.41
65157;BME280;52745;49.794;18.258;2023-05-10T00:27:48;-16180.69;;;9.11;58.55
65157;BME280;52745;49.794;18.258;2023-05-10T00:30:15;-16179.47;;;9.07;58.79
65157;BME280;52745;49.794;18.258;2023-05-10T00:32:42;-16178.66;;;9.04;58.84
65157;BME280;52745;49.794;18.258;2023-05-10T00:35:09;-16176.59;;;8.96;58.99
65157;BME280;52745;49.794;18.258;2023-05-10T00:37:36;-16176.19;;;8.95;59.03
65157;BME280;52745;49.794;18.258;2023-05-10T00:40:03;-16173.72;;;8.85;59.31
65157;BME280;52745;49.794;18.258;2023-05-10T00:42:31;-16172.66;;;8.81;59.46
65157;BME280;52745;49.794;18.258;2023-05-10T00:44:58;-16172.09;;;8.79;59.26
65157;BME280;52745;49.794;18.258;2023-05-10T00:47:25;-16172.09;;;8.79;59.50
65157;BME280;52745;49.794;18.258;2023-05-10T00:49:52;-16172.22;;;8.80;59.24
65157;BME280;52745;49.794;18.258;2023-05-10T00:52:19;-16171.00;;;8.75;59.36
65157;BME280;52745;49.794;18.258;2023-05-10T00:54:46;-16171.00;;;8.75;59.44
65157;BME280;52745;49.794;18.258;2023-05-10T00:57:14;-16170.47;;;8.73;59.39
65157;BME280;52745;49.794;18.258;2023-05-10T00:59:41;-16169.91;;;8.71;59.41
65157;BME280;52745;49.794;18.258;2023-05-10T01:02:08;-16168.56;;;8.66;59.53
65157;BME280;52745;49.794;18.258;2023-05-10T01:04:35;-16168.13;;;8.64;59.80
65157;BME280;52745;49.794;18.258;2023-05-10T01:07:02;-16168.56;;;8.66;59.57
65157;BME280;52745;49.794;18.258;2023-05-10T01:09:28;-16168.13;;;8.64;59.57
65157;BME280;52745;49.794;18.258;2023-05-10T01:11:56;-16167.47;;;8.62;59.76
65157;BME280;52745;49.794;18.258;2023-05-10T01:14:22;-16168.00;;;8.64;59.75
65157;BME280;52745;49.794;18.258;2023-05-10T01:16:50;-16168.41;;;8.65;59.69
65157;BME280;52745;49.794;18.258;2023-05-10T01:19:24;-16167.19;;;8.61;59.68
65157;BME280;52745;49.794;18.258;2023-05-10T01:35:49;-16163.63;;;8.47;60.12
65157;BME280;52745;49.794;18.258;2023-05-10T01:44:24;-16165.28;;;8.54;59.57
65157;BME280;52745;49.794;18.258;2023-05-10T01:47:05;-16164.59;;;8.51;59.69
65157;BME280;52745;49.794;18.258;2023-05-10T01:49:47;-16164.47;;;8.51;59.58
65157;BME280;52745;49.794;18.258;2023-05-10T01:52:18;-16164.72;;;8.52;59.52
65157;BME280;52745;49.794;18.258;2023-05-10T01:54:53;-16165.00;;;8.53;59.25
65157;BME280;52745;49.794;18.258;2023-05-10T01:57:25;-16165.28;;;8.54;59.36
65157;BME280;52745;49.794;18.258;2023-05-10T01:59:54;-16166.09;;;8.57;59.39
65157;BME280;52745;49.794;18.258;2023-05-10T02:02:23;-16165.81;;;8.56;59.34
65157;BME280;52745;49.794;18.258;2023-05-10T02:04:51;-16166.63;;;8.59;59.34
65157;BME280;52745;49.794;18.258;2023-05-10T02:07:20;-16165.41;;;8.54;59.43
65157;BME280;52745;49.794;18.258;2023-05-10T02:09:47;-16165.56;;;8.55;59.24
65157;BME280;52745;49.794;18.258;2023-05-10T02:12:15;-16165.41;;;8.54;59.62
65157;BME280;52745;49.794;18.258;2023-05-10T02:14:43;-16165.81;;;8.56;59.31
65157;BME280;52745;49.794;18.258;2023-05-10T02:17:11;-16164.19;;;8.49;59.84
65157;BME280;52745;49.794;18.258;2023-05-10T02:19:40;-16163.38;;;8.46;59.95
65157;BME280;52745;49.794;18.258;2023-05-10T02:22:09;-16162.00;;;8.41;60.13
65157;BME280;52745;49.794;18.258;2023-05-10T02:24:36;-16162.13;;;8.42;60.27
65157;BME280;52745;49.794;18.258;2023-05-10T02:27:06;-16161.16;;;8.38;60.72
65157;BME280;52745;49.794;18.258;2023-05-10T02:29:36;-16160.06;;;8.34;60.54
65157;BME280;52745;49.794;18.258;2023-05-10T02:32:03;-16160.34;;;8.35;60.61
65157;BME280;52745;49.794;18.258;2023-05-10T02:34:31;-16159.53;;;8.32;60.79
65157;BME280;52745;49.794;18.258;2023-05-10T02:36:58;-16159.41;;;8.32;60.92
65157;BME280;52745;49.794;18.258;2023-05-10T02:39:27;-16157.63;;;8.25;61.31
65157;BME280;52745;49.794;18.258;2023-05-10T02:41:55;-16157.34;;;8.24;61.58
65157;BME280;52745;49.794;18.258;2023-05-10T02:44:24;-16156.66;;;8.21;61.59
65157;BME280;52745;49.794;18.258;2023-05-10T02:46:53;-16156.13;;;8.19;61.84
65157;BME280;52745;49.794;18.258;2023-05-10T02:49:22;-16155.44;;;8.17;62.13
65157;BME280;52745;49.794;18.258;2023-05-10T02:51:51;-16154.34;;;8.13;62.13
65157;BME280;52745;49.794;18.258;2023-05-10T02:54:27;-16153.94;;;8.11;62.34
65157;BME280;52745;49.794;18.258;2023-05-10T02:57:00;-16152.31;;;8.05;62.76
65157;BME280;52745;49.794;18.258;2023-05-10T02:59:29;-16151.34;;;8.01;63.10
65157;BME280;52745;49.794;18.258;2023-05-10T03:01:57;-16150.38;;;7.98;63.34
65157;BME280;52745;49.794;18.258;2023-05-10T03:04:23;-16149.16;;;7.93;63.66
65157;BME280;52745;49.794;18.258;2023-05-10T03:06:52;-16148.88;;;7.92;63.79
65157;BME280;52745;49.794;18.258;2023-05-10T03:09:19;-16146.97;;;7.85;64.30
65157;BME280;52745;49.794;18.258;2023-05-10T03:15:00;-16146.69;;;7.84;64.43
65157;BME280;52745;49.794;18.258;2023-05-10T03:17:33;-16146.97;;;7.85;64.76
65157;BME280;52745;49.794;18.258;2023-05-10T03:20:14;-16144.78;;;7.77;64.96
65157;BME280;52745;49.794;18.258;2023-05-10T03:22:48;-16143.97;;;7.74;65.23
65157;BME280;52745;49.794;18.258;2023-05-10T03:25:16;-16143.16;;;7.71;65.50
65157;BME280;52745;49.794;18.258;2023-05-10T03:27:45;-16143.69;;;7.73;65.54
65157;BME280;52745;49.794;18.258;2023-05-10T03:30:13;-16144.25;;;7.75;66.19
65157;BME280;52745;49.794;18.258;2023-05-10T03:32:41;-16143.84;;;7.73;66.37
65157;BME280;52745;49.794;18.258;2023-05-10T03:35:09;-16145.06;;;7.78;65.84
65157;BME280;52745;49.794;18.258;2023-05-10T03:37:37;-16146.00;;;7.81;65.42
65157;BME280;52745;49.794;18.258;2023-05-10T03:40:05;-16147.25;;;7.86;65.36
65157;BME280;52745;49.794;18.258;2023-05-10T03:42:34;-16149.28;;;7.94;65.00
65157;BME280;52745;49.794;18.258;2023-05-10T03:45:01;-16149.84;;;7.96;64.99
65157;BME280;52745;49.794;18.258;2023-05-10T03:47:28;-16151.75;;;8.03;64.81
65157;BME280;52745;49.794;18.258;2023-05-10T03:49:56;-16154.34;;;8.13;64.51
65157;BME280;52745;49.794;18.258;2023-05-10T03:52:23;-16155.16;;;8.16;64.56
65157;BME280;52745;49.794;18.258;2023-05-10T03:54:49;-16155.56;;;8.17;64.43
65157;BME280;52745;49.794;18.258;2023-05-10T03:57:16;-16157.22;;;8.23;64.21
65157;BME280;52745;49.794;18.258;2023-05-10T03:59:43;-16157.75;;;8.25;64.18
65157;BME280;52745;49.794;18.258;2023-05-10T04:02:10;-16159.25;;;8.31;63.88
65157;BME280;52745;49.794;18.258;2023-05-10T04:04:36;-16162.00;;;8.41;63.74
65157;BME280;52745;49.794;18.258;2023-05-10T04:07:03;-16163.09;;;8.45;63.93
65157;BME280;52745;49.794;18.258;2023-05-10T04:09:30;-16165.13;;;8.53;64.12
65157;BME280;52745;49.794;18.258;2023-05-10T04:11:58;-16166.09;;;8.57;63.79
65157;BME280;52745;49.794;18.258;2023-05-10T04:14:26;-16168.28;;;8.65;63.28
65157;BME280;52745;49.794;18.258;2023-05-10T04:16:52;-16169.91;;;8.71;63.31
65157;BME280;52745;49.794;18.258;2023-05-10T04:19:19;-16171.97;;;8.79;62.79
65157;BME280;52745;49.794;18.258;2023-05-10T04:21:45;-16172.38;;;8.80;62.64
65157;BME280;52745;49.794;18.258;2023-05-10T04:24:12;-16173.47;;;8.84;62.51
65157;BME280;52745;49.794;18.258;2023-05-10T04:26:39;-16176.19;;;8.95;62.25
65157;BME280;52745;49.794;18.258;2023-05-10T04:29:06;-16177.97;;;9.01;62.31
65157;BME280;52745;49.794;18.258;2023-05-10T04:31:32;-16178.91;;;9.05;61.96
65157;BME280;52745;49.794;18.258;2023-05-10T04:33:59;-16180.69;;;9.11;61.80
65157;BME280;52745;49.794;18.258;2023-05-10T04:36:26;-16184.25;;;9.25;61.61
65157;BME280;52745;49.794;18.258;2023-05-10T04:38:54;-16185.75;;;9.30;60.92
65157;BME280;52745;49.794;18.258;2023-05-10T04:41:20;-16186.84;;;9.35;61.05
65157;BME280;52745;49.794;18.258;2023-05-10T04:43:47;-16187.66;;;9.38;61.50
65157;BME280;52745;49.794;18.258;2023-05-10T04:46:15;-16189.56;;;9.45;61.15
65157;BME280;52745;49.794;18.258;2023-05-10T04:48:42;-16191.88;;;9.53;61.24
65157;BME280;52745;49.794;18.258;2023-05-10T04:51:09;-16193.38;;;9.59;61.04
65157;BME280;52745;49.794;18.258;2023-05-10T04:53:35;-16195.28;;;9.66;61.07
65157;BME280;52745;49.794;18.258;2023-05-10T04:56:02;-16197.47;;;9.74;61.06
65157;BME280;52745;49.794;18.258;2023-05-10T04:58:29;-16199.66;;;9.83;61.45
65157;BME280;52745;49.794;18.258;2023-05-10T05:00:56;-16202.25;;;9.92;61.20
65157;BME280;52745;49.794;18.258;2023-05-10T05:03:23;-16204.84;;;10.02;62.08
65157;BME280;52745;49.794;18.258;2023-05-10T05:05:49;-16208.13;;;10.14;60.79
65157;BME280;52745;49.794;18.258;2023-05-10T05:08:16;-16210.56;;;10.24;60.81
65157;BME280;52745;49.794;18.258;2023-05-10T05:10:42;-16213.44;;;10.34;60.54
65157;BME280;52745;49.794;18.258;2023-05-10T05:13:09;-16215.22;;;10.41;60.41
65157;BME280;52745;49.794;18.258;2023-05-10T05:15:36;-16216.97;;;10.48;59.57
65157;BME280;52745;49.794;18.258;2023-05-10T05:18:03;-16218.75;;;10.54;59.75
65157;BME280;52745;49.794;18.258;2023-05-10T05:20:32;-16221.06;;;10.63;59.73
65157;BME280;52745;49.794;18.258;2023-05-10T05:23:00;-16224.63;;;10.76;59.67
65157;BME280;52745;49.794;18.258;2023-05-10T05:25:27;-16226.38;;;10.83;60.24
65157;BME280;52745;49.794;18.258;2023-05-10T05:27:53;-16230.06;;;10.97;59.08
65157;BME280;52745;49.794;18.258;2023-05-10T05:30:20;-16233.75;;;11.11;59.30
65157;BME280;52745;49.794;18.258;2023-05-10T05:32:47;-16236.19;;;11.20;59.58
65157;BME280;52745;49.794;18.258;2023-05-10T05:35:13;-16239.34;;;11.32;57.88
65157;BME280;52745;49.794;18.258;2023-05-10T05:37:40;-16244.78;;;11.52;56.79
65157;BME280;52745;49.794;18.258;2023-05-10T05:40:07;-16251.06;;;11.76;56.53
65157;BME280;52745;49.794;18.258;2023-05-10T05:42:34;-16255.16;;;11.91;56.46
65157;BME280;52745;49.794;18.258;2023-05-10T05:45:01;-16258.00;;;12.02;55.12
65157;BME280;52745;49.794;18.258;2023-05-10T05:47:28;-16262.63;;;12.19;57.01
65157;BME280;52745;49.794;18.258;2023-05-10T05:49:54;-16265.50;;;12.30;54.98
65157;BME280;52745;49.794;18.258;2023-05-10T05:52:21;-16268.91;;;12.43;54.43
65157;BME280;52745;49.794;18.258;2023-05-10T05:54:48;-16271.63;;;12.53;53.12
65157;BME280;52745;49.794;18.258;2023-05-10T05:57:15;-16274.22;;;12.63;52.58
65157;BME280;52745;49.794;18.258;2023-05-10T05:59:41;-16276.25;;;12.71;51.73
65157;BME280;52745;49.794;18.258;2023-05-10T06:02:10;-16277.63;;;12.76;52.13
65157;BME280;52745;49.794;18.258;2023-05-10T06:04:36;-16279.66;;;12.83;51.67
65157;BME280;52745;49.794;18.258;2023-05-10T06:07:03;-16281.97;;;12.92;51.96
65157;BME280;52745;49.794;18.258;2023-05-10T06:09:30;-16283.88;;;12.99;51.92
65157;BME280;52745;49.794;18.258;2023-05-10T06:11:57;-16286.59;;;13.10;51.96
65157;BME280;52745;49.794;18.258;2023-05-10T06:14:24;-16290.00;;;13.22;52.04
65157;BME280;52745;49.794;18.258;2023-05-10T06:16:51;-16291.09;;;13.27;51.70
65157;BME280;52745;49.794;18.258;2023-05-10T06:19:17;-16291.38;;;13.28;51.32
65157;BME280;52745;49.794;18.258;2023-05-10T06:21:44;-16291.09;;;13.27;51.53
65157;BME280;52745;49.794;18.258;2023-05-10T06:24:11;-16290.69;;;13.25;51.49
65157;BME280;52745;49.794;18.258;2023-05-10T06:26:37;-16294.09;;;13.38;52.01
65157;BME280;52745;49.794;18.258;2023-05-10T06:29:04;-16297.09;;;13.49;51.96
65157;BME280;52745;49.794;18.258;2023-05-10T06:31:31;-16299.94;;;13.60;52.28
65157;BME280;52745;49.794;18.258;2023-05-10T06:33:58;-16302.41;;;13.69;51.95
65157;BME280;52745;49.794;18.258;2023-05-10T06:36:24;-16304.28;;;13.76;51.86
65157;BME280;52745;49.794;18.258;2023-05-10T06:38:54;-16308.50;;;13.92;52.14
65157;BME280;52745;49.794;18.258;2023-05-10T06:41:22;-16310.69;;;14.00;52.63
65157;BME280;52745;49.794;18.258;2023-05-10T06:43:48;-16312.19;;;14.06;52.19
65157;BME280;52745;49.794;18.258;2023-05-10T06:46:15;-16315.88;;;14.20;51.93
65157;BME280;52745;49.794;18.258;2023-05-10T06:48:42;-16314.38;;;14.14;51.19
65157;BME280;52745;49.794;18.258;2023-05-10T06:51:09;-16313.41;;;14.11;51.08
65157;BME280;52745;49.794;18.258;2023-05-10T06:53:35;-16313.56;;;14.11;50.75
65157;BME280;52745;49.794;18.258;2023-05-10T06:56:02;-16314.09;;;14.13;50.93
65157;BME280;52745;49.794;18.258;2023-05-10T06:58:29;-16313.81;;;14.12;50.70
65157;BME280;52745;49.794;18.258;2023-05-10T07:01:02;-16313.41;;;14.11;50.54
65157;BME280;52745;49.794;18.258;2023-05-10T07:03:28;-16317.50;;;14.26;51.77
65157;BME280;52745;49.794;18.258;2023-05-10T07:06:02;-16321.16;;;14.40;51.27
65157;BME280;52745;49.794;18.258;2023-05-10T07:08:31;-16324.84;;;14.54;50.93
65157;BME280;52745;49.794;18.258;2023-05-10T07:11:05;-16324.16;;;14.51;50.15
65157;BME280;52745;49.794;18.258;2023-05-10T07:13:33;-16330.28;;;14.74;49.79
65157;BME280;52745;49.794;18.258;2023-05-10T07:16:01;-16332.31;;;14.82;50.52
65157;BME280;52745;49.794;18.258;2023-05-10T07:18:32;-16335.84;;;14.95;49.25
65157;BME280;52745;49.794;18.258;2023-05-10T07:20:59;-16340.47;;;15.13;48.85
65157;BME280;52745;49.794;18.258;2023-05-10T07:23:25;-16345.09;;;15.30;48.28
65157;BME280;52745;49.794;18.258;2023-05-10T07:25:52;-16353.41;;;15.61;47.63
65157;BME280;52745;49.794;18.258;2023-05-10T07:28:19;-16365.22;;;16.06;47.08
65157;BME280;52745;49.794;18.258;2023-05-10T07:30:46;-16386.81;;;16.87;44.24
65157;BME280;52745;49.794;18.258;2023-05-10T07:33:13;-16423.06;;;18.24;41.45
65157;BME280;52745;49.794;18.258;2023-05-10T07:35:41;-16460.63;;;19.66;38.05
65157;BME280;52745;49.794;18.258;2023-05-10T07:38:07;-16489.22;;;20.74;35.92
65157;BME280;52745;49.794;18.258;2023-05-10T07:40:34;-16527.81;;;22.20;34.03
65157;BME280;52745;49.794;18.258;2023-05-10T07:43:01;-16538.63;;;22.61;31.79
65157;BME280;52745;49.794;18.258;2023-05-10T07:45:28;-16551.19;;;23.09;31.43
65157;BME280;52745;49.794;18.258;2023-05-10T07:47:55;-16552.16;;;23.12;31.08
65157;BME280;52745;49.794;18.258;2023-05-10T07:50:22;-16569.84;;;23.80;31.57
65157;BME280;52745;49.794;18.258;2023-05-10T07:52:48;-16610.09;;;25.32;28.16
65157;BME280;52745;49.794;18.258;2023-05-10T07:55:15;-16586.88;;;24.44;29.15
65157;BME280;52745;49.794;18.258;2023-05-10T07:57:42;-16597.94;;;24.86;28.52
65157;BME280;52745;49.794;18.258;2023-05-10T08:00:12;-16609.97;;;25.32;29.52
65157;BME280;52745;49.794;18.258;2023-05-10T08:02:42;-16599.44;;;24.92;27.83
65157;BME280;52745;49.794;18.258;2023-05-10T08:05:08;-16597.94;;;24.86;27.89
65157;BME280;52745;49.794;18.258;2023-05-10T08:07:35;-16582.81;;;24.29;28.68
65157;BME280;52745;49.794;18.258;2023-05-10T08:10:03;-16550.25;;;23.05;30.58
65157;BME280;52745;49.794;18.258;2023-05-10T08:12:30;-16578.38;;;24.12;30.13
65157;BME280;52745;49.794;18.258;2023-05-10T08:14:57;-16557.69;;;23.33;30.01
65157;BME280;52745;49.794;18.258;2023-05-10T08:17:24;-16561.75;;;23.49;29.86
65157;BME280;52745;49.794;18.258;2023-05-10T08:19:51;-16573.38;;;23.93;29.93
65157;BME280;52745;49.794;18.258;2023-05-10T08:22:17;-16606.03;;;25.17;28.45
65157;BME280;52745;49.794;18.258;2023-05-10T08:24:44;-16648.00;;;26.76;26.81
65157;BME280;52745;49.794;18.258;2023-05-10T08:27:11;-16621.69;;;25.76;28.80
65157;BME280;52745;49.794;18.258;2023-05-10T08:29:38;-16650.97;;;26.88;26.51
65157;BME280;52745;49.794;18.258;2023-05-10T08:32:04;-16598.63;;;24.89;27.90
65157;BME280;52745;49.794;18.258;2023-05-10T08:34:31;-16552.56;;;23.14;30.53
65157;BME280;52745;49.794;18.258;2023-05-10T08:36:58;-16566.47;;;23.67;29.32
65157;BME280;52745;49.794;18.258;2023-05-10T08:39:24;-16615.50;;;25.53;26.53
65157;BME280;52745;49.794;18.258;2023-05-10T08:41:53;-16621.56;;;25.76;26.86
65157;BME280;52745;49.794;18.258;2023-05-10T08:44:20;-16621.56;;;25.76;25.97
65157;BME280;52745;49.794;18.258;2023-05-10T08:46:49;-16655.53;;;27.05;24.84
65157;BME280;52745;49.794;18.258;2023-05-10T08:49:21;-16681.00;;;28.02;23.91
65157;BME280;52745;49.794;18.258;2023-05-10T08:51:52;-16662.28;;;27.31;25.13
65157;BME280;52745;49.794;18.258;2023-05-10T08:54:21;-16661.63;;;27.28;24.60
65157;BME280;52745;49.794;18.258;2023-05-10T08:56:48;-16667.53;;;27.51;24.46
65157;BME280;52745;49.794;18.258;2023-05-10T08:59:15;-16655.28;;;27.04;25.19
65157;BME280;52745;49.794;18.258;2023-05-10T09:01:43;-16680.75;;;28.01;23.55
65157;BME280;52745;49.794;18.258;2023-05-10T09:04:12;-16664.03;;;27.37;24.29
65157;BME280;52745;49.794;18.258;2023-05-10T09:06:41;-16677.63;;;27.89;24.08
65157;BME280;52745;49.794;18.258;2023-05-10T09:09:08;-16695.81;;;28.58;23.80
65157;BME280;52745;49.794;18.258;2023-05-10T09:11:35;-16690.56;;;28.38;22.74
65157;BME280;52745;49.794;18.258;2023-05-10T09:14:02;-16702.13;;;28.82;24.23
65157;BME280;52745;49.794;18.258;2023-05-10T09:16:28;-16674.13;;;27.76;24.01
65157;BME280;52745;49.794;18.258;2023-05-10T09:18:55;-16686.13;;;28.21;23.26
65157;BME280;52745;49.794;18.258;2023-05-10T09:21:22;-16641.13;;;26.50;24.81
65157;BME280;52745;49.794;18.258;2023-05-10T09:23:49;-16568.78;;;23.75;28.03
65157;BME280;52745;49.794;18.258;2023-05-10T09:26:16;-16565.00;;;23.61;29.00
65157;BME280;52745;49.794;18.258;2023-05-10T09:28:55;-16533.34;;;22.41;30.03
65157;BME280;52745;49.794;18.258;2023-05-10T09:31:22;-16545.53;;;22.87;30.18
65157;BME280;52745;49.794;18.258;2023-05-10T09:33:53;-16585.78;;;24.40;28.30
65157;BME280;52745;49.794;18.258;2023-05-10T09:36:20;-16589.56;;;24.54;27.56
65157;BME280;52745;49.794;18.258;2023-05-10T09:38:51;-16572.97;;;23.91;28.43
65157;BME280;52745;49.794;18.258;2023-05-10T09:41:22;-16534.69;;;22.46;30.72
65157;BME280;52745;49.794;18.258;2023-05-10T09:43:49;-16505.47;;;21.36;32.81
65157;BME280;52745;49.794;18.258;2023-05-10T09:46:16;-16495.59;;;20.98;34.19
65157;BME280;52745;49.794;18.258;2023-05-10T09:48:45;-16461.59;;;19.70;35.58
65157;BME280;52745;49.794;18.258;2023-05-10T09:51:39;-16454.25;;;19.42;36.24
65157;BME280;52745;49.794;18.258;2023-05-10T09:54:10;-16511.69;;;21.59;33.46
65157;BME280;52745;49.794;18.258;2023-05-10T09:56:38;-16561.06;;;23.46;29.42
65157;BME280;52745;49.794;18.258;2023-05-10T09:59:10;-16567.81;;;23.72;29.27
65157;BME280;52745;49.794;18.258;2023-05-10T10:01:38;-16560.13;;;23.43;31.11
65157;BME280;52745;49.794;18.258;2023-05-10T10:04:06;-16540.25;;;22.67;31.00
65157;BME280;52745;49.794;18.258;2023-05-10T10:06:40;-16527.00;;;22.17;31.65
65157;BME280;52745;49.794;18.258;2023-05-10T10:09:07;-16560.53;;;23.44;30.15
65157;BME280;52745;49.794;18.258;2023-05-10T10:11:36;-16525.09;;;22.10;31.38
65157;BME280;52745;49.794;18.258;2023-05-10T10:14:04;-16532.41;;;22.38;31.01
65157;BME280;52745;49.794;18.258;2023-05-10T10:16:31;-16547.41;;;22.94;30.02
65157;BME280;52745;49.794;18.258;2023-05-10T10:18:58;-16518.19;;;21.84;31.09
65157;BME280;52745;49.794;18.258;2023-05-10T10:21:25;-16495.44;;;20.98;32.96
65157;BME280;52745;49.794;18.258;2023-05-10T10:23:52;-16482.84;;;20.50;33.68
65157;BME280;52745;49.794;18.258;2023-05-10T10:26:19;-16480.97;;;20.43;34.29
65157;BME280;52745;49.794;18.258;2023-05-10T10:32:09;-16487.19;;;20.66;34.00
65157;BME280;52745;49.794;18.258;2023-05-10T10:34:38;-16487.88;;;20.69;33.03
65157;BME280;52745;49.794;18.258;2023-05-10T10:37:06;-16482.31;;;20.48;33.37
65157;BME280;52745;49.794;18.258;2023-05-10T10:39:33;-16474.47;;;20.18;33.99
65157;BME280;52745;49.794;18.258;2023-05-10T10:42:03;-16471.59;;;20.08;33.60
65157;BME280;52745;49.794;18.258;2023-05-10T10:50:01;-16495.19;;;20.97;32.61
65157;BME280;52745;49.794;18.258;2023-05-10T10:52:36;-16489.22;;;20.74;33.15
65157;BME280;52745;49.794;18.258;2023-05-10T11:07:57;-16492.06;;;20.85;32.66
65157;BME280;52745;49.794;18.258;2023-05-10T11:10:26;-16524.28;;;22.07;30.85
65157;BME280;52745;49.794;18.258;2023-05-10T11:13:00;-16510.22;;;21.54;31.57
65157;BME280;52745;49.794;18.258;2023-05-10T11:15:32;-16502.63;;;21.25;31.81
65157;BME280;52745;49.794;18.258;2023-05-10T11:17:59;-16481.09;;;20.43;32.22
65157;BME280;52745;49.794;18.258;2023-05-10T11:20:38;-16459.53;;;19.62;33.41
65157;BME280;52745;49.794;18.258;2023-05-10T11:23:13;-16461.31;;;19.69;34.32
65157;BME280;52745;49.794;18.258;2023-05-10T11:25:43;-16464.03;;;19.79;33.76
65157;BME280;52745;49.794;18.258;2023-05-10T11:28:12;-16465.25;;;19.83;34.69
65157;BME280;52745;49.794;18.258;2023-05-10T11:30:40;-16468.38;;;19.95;32.66
65157;BME280;52745;49.794;18.258;2023-05-10T11:33:08;-16507.63;;;21.44;30.90
65157;BME280;52745;49.794;18.258;2023-05-10T11:35:39;-16510.47;;;21.55;31.09
65157;BME280;52745;49.794;18.258;2023-05-10T11:38:11;-16491.94;;;20.84;31.94
65157;BME280;52745;49.794;18.258;2023-05-10T11:40:38;-16484.22;;;20.55;32.82
65157;BME280;52745;49.794;18.258;2023-05-10T11:43:05;-16472.44;;;20.11;32.96
65157;BME280;52745;49.794;18.258;2023-05-10T11:45:32;-16467.81;;;19.93;34.10
65157;BME280;52745;49.794;18.258;2023-05-10T11:48:00;-16461.16;;;19.68;33.37
65157;BME280;52745;49.794;18.258;2023-05-10T11:50:27;-16456.44;;;19.50;33.86
65157;BME280;52745;49.794;18.258;2023-05-10T11:52:55;-16459.53;;;19.62;33.88
65157;BME280;52745;49.794;18.258;2023-05-10T11:55:25;-16457.66;;;19.55;34.32
65157;BME280;52745;49.794;18.258;2023-05-10T11:57:53;-16454.41;;;19.42;34.45
65157;BME280;52745;49.794;18.258;2023-05-10T12:00:21;-16446.94;;;19.14;34.69
65157;BME280;52745;49.794;18.258;2023-05-10T12:02:48;-16442.19;;;18.96;34.80
65157;BME280;52745;49.794;18.258;2023-05-10T12:05:15;-16441.53;;;18.94;35.27
65157;BME280;52745;49.794;18.258;2023-05-10T12:07:42;-16445.31;;;19.08;35.61
65157;BME280;52745;49.794;18.258;2023-05-10T12:10:13;-16444.09;;;19.03;35.62
65157;BME280;52745;49.794;18.258;2023-05-10T12:12:45;-16457.25;;;19.53;34.82
65157;BME280;52745;49.794;18.258;2023-05-10T12:15:19;-16455.34;;;19.46;34.23
65157;BME280;52745;49.794;18.258;2023-05-10T12:17:47;-16452.50;;;19.35;34.71
65157;BME280;52745;49.794;18.258;2023-05-10T12:20:23;-16462.00;;;19.71;34.35
65157;BME280;52745;49.794;18.258;2023-05-10T12:22:55;-16472.03;;;20.09;34.62
65157;BME280;52745;49.794;18.258;2023-05-10T12:25:23;-16469.44;;;19.99;33.62
65157;BME280;52745;49.794;18.258;2023-05-10T12:27:51;-16469.59;;;20.00;33.76
65157;BME280;52745;49.794;18.258;2023-05-10T12:30:26;-16475.00;;;20.20;34.04
65157;BME280;52745;49.794;18.258;2023-05-10T12:32:54;-16476.50;;;20.26;34.41
65157;BME280;52745;49.794;18.258;2023-05-10T12:35:25;-16478.13;;;20.32;33.75
65157;BME280;52745;49.794;18.258;2023-05-10T12:37:52;-16478.13;;;20.32;33.52
65157;BME280;52745;49.794;18.258;2023-05-10T12:40:20;-16484.06;;;20.55;32.64
65157;BME280;52745;49.794;18.258;2023-05-10T12:42:47;-16493.00;;;20.88;31.60
65157;BME280;52745;49.794;18.258;2023-05-10T12:45:15;-16490.03;;;20.77;32.66
65157;BME280;52745;49.794;18.258;2023-05-10T12:47:43;-16497.06;;;21.04;32.49
65157;BME280;52745;49.794;18.258;2023-05-10T12:50:10;-16496.81;;;21.03;31.85
65157;BME280;52745;49.794;18.258;2023-05-10T12:52:37;-16490.84;;;20.80;31.40
65157;BME280;52745;49.794;18.258;2023-05-10T12:55:04;-16488.16;;;20.70;31.73
65157;BME280;52745;49.794;18.258;2023-05-10T12:57:30;-16486.38;;;20.63;32.49
65157;BME280;52745;49.794;18.258;2023-05-10T12:59:57;-16483.66;;;20.53;32.45
65157;BME280;52745;49.794;18.258;2023-05-10T13:02:24;-16480.81;;;20.42;32.60
65157;BME280;52745;49.794;18.258;2023-05-10T13:04:51;-16475.13;;;20.21;32.89
65157;BME280;52745;49.794;18.258;2023-05-10T13:07:18;-16480.28;;;20.40;32.96
65157;BME280;52745;49.794;18.258;2023-05-10T13:09:45;-16482.84;;;20.50;32.33
65157;BME280;52745;49.794;18.258;2023-05-10T13:12:11;-16484.47;;;20.56;31.76
65157;BME280;52745;49.794;18.258;2023-05-10T13:14:38;-16488.53;;;20.72;32.90
65157;BME280;52745;49.794;18.258;2023-05-10T13:17:07;-16494.66;;;20.95;30.68
65157;BME280;52745;49.794;18.258;2023-05-10T13:19:34;-16491.13;;;20.81;30.94
65157;BME280;52745;49.794;18.258;2023-05-10T13:22:01;-16480.16;;;20.40;31.63
65157;BME280;52745;49.794;18.258;2023-05-10T13:24:27;-16470.81;;;20.04;32.02
65157;BME280;52745;49.794;18.258;2023-05-10T13:26:54;-16464.44;;;19.80;32.42
65157;BME280;52745;49.794;18.258;2023-05-10T13:29:21;-16464.28;;;19.80;32.36
65157;BME280;52745;49.794;18.258;2023-05-10T13:31:48;-16469.72;;;20.00;33.11